createdAt,value
2022-12-09T00:03:00.618Z,13.50
2022-12-09T00:06:16.458Z,14.35
2022-12-09T00:09:18.163Z,14.40
2022-12-09T00:12:19.798Z,13.30
2022-12-09T00:15:21.375Z,15.25
2022-12-09T00:18:22.933Z,14.45
2022-12-09T00:21:29.785Z,13.50
2022-12-09T00:24:31.379Z,12.85
2022-12-09T00:27:32.846Z,12.25
2022-12-09T00:30:34.612Z,11.43
2022-12-09T00:33:36.571Z,12.07
2022-12-09T00:36:38.282Z,11.25
2022-12-09T00:39:40.120Z,11.55
2022-12-09T00:42:41.931Z,11.07
2022-12-09T00:45:45.380Z,11.82
2022-12-09T00:48:47.621Z,12.68
2022-12-09T00:51:49.109Z,10.75
2022-12-09T00:54:50.854Z,11.60
2022-12-09T00:57:52.569Z,11.18
2022-12-09T01:00:54.295Z,11.32
2022-12-09T01:03:56.535Z,11.93
2022-12-09T01:06:58.635Z,11.55
2022-12-09T01:13:04.570Z,11.07
2022-12-09T01:16:15.307Z,12.23
2022-12-09T01:19:17.206Z,13.07
2022-12-09T01:22:19.004Z,12.25
2022-12-09T01:25:20.578Z,12.02
2022-12-09T01:28:22.094Z,13.43
2022-12-09T01:31:25.128Z,12.18
2022-12-09T01:34:26.851Z,14.20
2022-12-09T01:37:28.548Z,13.77
2022-12-09T01:40:30.570Z,14.70
2022-12-09T01:43:32.404Z,13.18
2022-12-09T01:46:34.066Z,13.80
2022-12-09T01:49:42.457Z,13.98
2022-12-09T01:52:46.649Z,13.65
2022-12-09T01:55:50.004Z,13.70
2022-12-09T01:58:54.443Z,13.52
2022-12-09T02:02:00.170Z,13.20
2022-12-09T02:05:02.832Z,13.63
2022-12-09T02:08:07.763Z,14.00
2022-12-09T02:11:17.367Z,15.15
2022-12-09T02:14:31.652Z,16.25
2022-12-09T02:17:40.369Z,16.13
2022-12-09T02:20:54.133Z,15.55
2022-12-09T02:24:06.129Z,15.18
2022-12-09T02:27:17.919Z,13.80
2022-12-09T02:30:23.283Z,14.35
2022-12-09T02:33:53.773Z,14.52
2022-12-09T02:37:13.857Z,14.48
2022-12-09T02:40:31.349Z,13.90
2022-12-09T02:43:48.067Z,14.20
2022-12-09T02:46:53.258Z,12.77
2022-12-09T02:50:06.057Z,15.87
2022-12-09T02:53:12.979Z,13.95
2022-12-09T02:56:15.689Z,14.57
2022-12-09T02:59:17.575Z,13.45
2022-12-09T03:02:30.291Z,14.75
2022-12-09T03:06:14.473Z,13.13
2022-12-09T03:09:27.510Z,15.60
2022-12-09T03:12:33.182Z,14.38
2022-12-09T03:15:40.901Z,16.45
2022-12-09T03:18:47.811Z,16.17
2022-12-09T03:21:53.530Z,15.48
2022-12-09T03:24:57.693Z,13.75
2022-12-09T03:28:03.982Z,14.98
2022-12-09T03:31:10.625Z,15.32
2022-12-09T03:34:16.333Z,14.60
2022-12-09T03:37:20.210Z,14.57
2022-12-09T03:40:25.787Z,14.00
2022-12-09T03:43:33.426Z,13.38
2022-12-09T03:46:35.363Z,13.82
2022-12-09T03:49:39.581Z,13.27
2022-12-09T03:52:50.122Z,13.43
2022-12-09T03:55:51.603Z,12.98
2022-12-09T03:58:55.990Z,13.15
2022-12-09T04:01:58.091Z,12.60
2022-12-09T04:05:00.005Z,12.77
2022-12-09T04:08:01.601Z,14.25
2022-12-09T04:11:03.199Z,13.07
2022-12-09T04:14:04.913Z,13.45
2022-12-09T04:17:06.640Z,13.32
2022-12-09T04:20:09.258Z,12.50
2022-12-09T04:23:11.278Z,12.32
2022-12-09T04:26:16.319Z,12.63
2022-12-09T04:29:18.359Z,12.60
2022-12-09T04:32:20.410Z,12.07
2022-12-09T04:35:23.096Z,11.38
2022-12-09T04:38:24.656Z,11.68
2022-12-09T04:41:26.728Z,13.25
2022-12-09T04:44:28.517Z,11.88
2022-12-09T04:47:30.164Z,11.75
2022-12-09T04:50:31.700Z,12.85
2022-12-09T04:53:33.377Z,12.85
2022-12-09T04:56:34.942Z,11.35
2022-12-09T04:59:36.430Z,12.55
2022-12-09T05:02:38.216Z,11.57
2022-12-09T05:05:40.925Z,11.63
2022-12-09T05:08:43.382Z,12.95
2022-12-09T05:11:44.924Z,12.82
2022-12-09T05:14:46.460Z,13.75
2022-12-09T05:17:48.383Z,14.55
2022-12-09T05:20:50.278Z,13.82
2022-12-09T05:23:51.850Z,14.38
2022-12-09T05:26:54.284Z,12.25
2022-12-09T05:29:55.954Z,13.15
2022-12-09T05:32:57.681Z,13.32
2022-12-09T05:36:00.054Z,12.88
2022-12-09T05:39:01.702Z,13.20
2022-12-09T05:42:03.595Z,13.80
2022-12-09T05:45:05.889Z,12.43
2022-12-09T05:48:07.715Z,13.30
2022-12-09T05:51:27.064Z,13.77
2022-12-09T05:54:28.972Z,19.10
2022-12-09T05:57:31.064Z,15.90
2022-12-09T06:00:33.002Z,14.82
2022-12-09T06:03:36.315Z,15.43
2022-12-09T06:06:38.810Z,13.23
2022-12-09T06:09:41.101Z,14.05
2022-12-09T06:12:43.061Z,13.95
2022-12-09T06:15:45.337Z,12.77
2022-12-09T06:18:48.579Z,14.38
2022-12-09T06:21:50.645Z,15.83
2022-12-09T06:24:56.927Z,15.63
2022-12-09T06:28:11.943Z,23.52
2022-12-09T06:31:14.044Z,21.30
2022-12-09T06:34:16.530Z,18.67
2022-12-09T06:37:18.292Z,21.00
2022-12-09T06:40:22.136Z,25.67
2022-12-09T06:43:24.138Z,19.45
2022-12-09T06:46:27.212Z,18.30
2022-12-09T06:49:29.325Z,42.67
2022-12-09T06:52:31.116Z,41.50
2022-12-09T06:55:32.943Z,21.73
2022-12-09T06:58:35.010Z,19.15
2022-12-09T07:01:38.097Z,15.68
2022-12-09T07:04:40.501Z,17.92
2022-12-09T07:07:42.624Z,17.17
2022-12-09T07:10:48.156Z,16.88
2022-12-09T07:13:53.533Z,17.08
2022-12-09T07:16:55.321Z,18.73
2022-12-09T07:20:01.531Z,18.65
2022-12-09T07:23:06.588Z,17.48
2022-12-09T07:26:08.824Z,17.23
2022-12-09T07:29:10.584Z,17.40
2022-12-09T07:32:12.395Z,16.80
2022-12-09T07:35:14.592Z,17.10
2022-12-09T07:38:18.251Z,16.45
2022-12-09T07:41:20.263Z,16.30
2022-12-09T07:44:22.887Z,15.90
2022-12-09T07:47:24.831Z,15.07
2022-12-09T07:50:26.814Z,16.58
2022-12-09T07:53:29.175Z,16.17
2022-12-09T07:56:31.007Z,15.48
2022-12-09T07:59:32.965Z,16.38
2022-12-09T08:02:34.829Z,16.60
2022-12-09T08:05:47.010Z,16.63
2022-12-09T08:08:49.316Z,15.88
2022-12-09T08:11:51.122Z,16.77
2022-12-09T08:14:53.550Z,16.42
2022-12-09T08:17:55.305Z,18.45
2022-12-09T08:20:57.477Z,17.15
2022-12-09T08:24:01.714Z,17.98
2022-12-09T08:27:04.404Z,17.77
2022-12-09T08:30:07.488Z,16.48
2022-12-09T08:33:09.693Z,17.65
2022-12-09T08:36:14.555Z,16.40
2022-12-09T08:39:16.332Z,15.57
2022-12-09T08:42:18.338Z,15.10
2022-12-09T08:45:20.014Z,16.35
2022-12-09T08:48:22.131Z,15.43
2022-12-09T08:51:24.265Z,14.65
2022-12-09T08:54:26.233Z,15.63
2022-12-09T08:57:28.808Z,15.20
2022-12-09T09:00:30.469Z,16.65
2022-12-09T09:03:32.305Z,16.55
2022-12-09T09:06:34.472Z,18.30
2022-12-09T09:09:36.565Z,17.10
2022-12-09T09:12:43.249Z,16.70
2022-12-09T09:15:45.659Z,16.98
2022-12-09T09:18:47.659Z,17.95
2022-12-09T09:21:49.973Z,17.80
2022-12-09T09:24:54.227Z,17.23
2022-12-09T09:31:03.393Z,19.25
2022-12-09T09:34:05.653Z,18.83
2022-12-09T09:37:07.573Z,21.45
2022-12-09T09:40:10.706Z,22.55
2022-12-09T09:43:17.468Z,20.20
2022-12-09T09:46:31.048Z,20.85
2022-12-09T09:49:48.500Z,20.83
2022-12-09T09:52:53.219Z,18.50
2022-12-09T09:56:19.853Z,20.08
2022-12-09T09:59:34.124Z,17.73
2022-12-09T10:03:01.250Z,16.02
2022-12-09T10:06:22.895Z,15.65
2022-12-09T10:09:44.378Z,15.15
2022-12-09T10:13:11.037Z,14.82
2022-12-09T10:16:21.229Z,15.80
2022-12-09T10:19:26.796Z,15.85
2022-12-09T10:22:32.165Z,16.95
2022-12-09T10:25:37.270Z,15.88
2022-12-09T10:28:45.058Z,15.82
2022-12-09T10:31:46.720Z,14.55
2022-12-09T10:34:48.865Z,15.68
2022-12-09T10:37:53.515Z,15.65
2022-12-09T10:41:01.339Z,16.27
2022-12-09T10:44:21.893Z,17.58
2022-12-09T10:47:29.417Z,17.70
2022-12-09T10:50:35.906Z,20.55
2022-12-09T10:53:46.049Z,20.27
2022-12-09T10:57:27.492Z,20.15
2022-12-09T11:00:34.618Z,19.73
2022-12-09T11:03:48.978Z,21.08
2022-12-09T11:06:58.713Z,21.98
2022-12-09T11:10:01.259Z,23.45
2022-12-09T11:13:07.412Z,21.90
2022-12-09T11:16:11.655Z,21.27
2022-12-09T11:19:14.328Z,20.58
2022-12-09T11:22:41.053Z,23.50
2022-12-09T11:26:07.730Z,20.95
2022-12-09T11:29:22.170Z,20.58
2022-12-09T11:35:45.853Z,20.13
2022-12-09T11:38:49.940Z,19.17
2022-12-09T11:42:16.976Z,20.00
2022-12-09T11:45:27.416Z,22.17
2022-12-09T11:48:37.524Z,19.80
2022-12-09T11:52:07.018Z,20.55
2022-12-09T11:55:23.542Z,20.92
2022-12-09T11:58:57.949Z,21.13
2022-12-09T12:02:26.302Z,20.35
2022-12-09T12:05:43.080Z,19.10
2022-12-09T12:08:50.900Z,20.02
2022-12-09T12:12:05.043Z,19.17
2022-12-09T12:15:43.374Z,20.90
2022-12-09T12:18:53.423Z,19.75
2022-12-09T12:21:57.774Z,21.00
2022-12-09T12:24:59.194Z,21.00
2022-12-09T12:28:22.020Z,20.30
2022-12-09T12:32:05.941Z,20.30
2022-12-09T12:35:28.458Z,20.38
2022-12-09T12:38:54.192Z,19.98
2022-12-09T12:42:12.177Z,19.08
2022-12-09T12:45:39.457Z,20.70
2022-12-09T12:49:05.329Z,21.00
2022-12-09T12:52:20.995Z,21.08
2022-12-09T12:55:53.582Z,20.27
2022-12-09T12:59:04.892Z,20.03
2022-12-09T13:02:31.256Z,21.33
2022-12-09T13:05:37.615Z,20.92
2022-12-09T13:09:03.251Z,19.70
2022-12-09T13:12:13.142Z,20.48
2022-12-09T13:15:17.552Z,21.75
2022-12-09T13:18:27.337Z,21.48
2022-12-09T13:21:28.956Z,20.48
2022-12-09T13:24:33.137Z,20.55
2022-12-09T13:30:55.617Z,19.85
2022-12-09T13:34:07.222Z,20.30
2022-12-09T13:37:31.671Z,23.17
2022-12-09T13:40:36.796Z,20.85
2022-12-09T13:43:40.358Z,20.73
2022-12-09T13:46:42.969Z,20.92
2022-12-09T13:49:58.306Z,20.95
2022-12-09T13:53:02.823Z,19.35
2022-12-09T13:56:16.666Z,19.98
2022-12-09T13:59:50.613Z,21.60
2022-12-09T14:03:00.001Z,20.95
2022-12-09T14:06:06.612Z,20.17
2022-12-09T14:09:35.526Z,22.88
2022-12-09T14:12:44.269Z,20.88
2022-12-09T14:15:48.032Z,21.05
2022-12-09T14:18:49.897Z,18.63
2022-12-09T14:22:20.112Z,19.63
2022-12-09T14:25:28.266Z,19.65
2022-12-09T14:28:40.665Z,21.95
2022-12-09T14:31:51.048Z,22.20
2022-12-09T14:35:03.007Z,22.08
2022-12-09T14:38:19.019Z,22.67
2022-12-09T14:41:48.111Z,22.13
2022-12-09T14:45:14.612Z,22.13
2022-12-09T14:48:24.851Z,22.77
2022-12-09T14:51:40.260Z,25.05
2022-12-09T14:54:45.798Z,23.00
2022-12-09T14:57:48.119Z,22.25
2022-12-09T15:01:00.259Z,24.55
2022-12-09T15:04:01.867Z,21.85
2022-12-09T15:07:15.892Z,23.92
2022-12-09T15:10:36.434Z,22.63
2022-12-09T15:13:40.942Z,23.63
2022-12-09T15:16:49.101Z,23.63
2022-12-09T15:20:00.222Z,22.98
2022-12-09T15:23:20.120Z,23.88
2022-12-09T15:26:32.464Z,24.42
2022-12-09T15:29:34.307Z,24.65
2022-12-09T15:32:38.718Z,26.25
2022-12-09T15:35:43.534Z,26.00
2022-12-09T15:38:57.045Z,27.08
2022-12-09T15:42:07.111Z,26.17
2022-12-09T15:45:12.870Z,27.60
2022-12-09T15:48:19.776Z,26.92
2022-12-09T15:51:23.107Z,25.73
2022-12-09T15:54:29.602Z,24.03
2022-12-09T15:57:31.255Z,25.13
2022-12-09T16:00:38.579Z,25.05
2022-12-09T16:03:40.250Z,26.42
2022-12-09T16:06:41.962Z,25.83
2022-12-09T16:10:08.753Z,25.40
2022-12-09T16:13:16.068Z,25.85
2022-12-09T16:16:29.654Z,26.77
2022-12-09T16:19:36.595Z,28.83
2022-12-09T16:22:41.103Z,24.45
2022-12-09T16:25:47.880Z,22.60
2022-12-09T16:29:02.689Z,25.42
2022-12-09T16:32:19.118Z,24.42
2022-12-09T16:35:43.088Z,24.00
2022-12-09T16:39:05.601Z,25.08
2022-12-09T16:42:29.587Z,25.17
2022-12-09T16:45:37.195Z,23.27
2022-12-09T16:48:38.843Z,23.15
2022-12-09T16:51:40.525Z,24.33
2022-12-09T16:54:46.558Z,24.33
2022-12-09T16:57:49.219Z,24.98
2022-12-09T17:00:51.045Z,23.35
2022-12-09T17:03:59.214Z,24.13
2022-12-09T17:07:00.736Z,26.42
2022-12-09T17:10:02.398Z,23.65
2022-12-09T17:13:03.928Z,25.27
2022-12-09T17:16:06.938Z,22.95
2022-12-09T17:19:08.702Z,26.23
2022-12-09T17:22:11.170Z,26.40
2022-12-09T17:25:12.863Z,25.30
2022-12-09T17:28:14.395Z,27.33
2022-12-09T17:31:19.194Z,27.00
2022-12-09T17:34:20.854Z,26.52
2022-12-09T17:37:22.353Z,27.92
2022-12-09T17:40:23.855Z,26.80
2022-12-09T17:43:25.370Z,29.08
2022-12-09T17:46:27.340Z,26.20
2022-12-09T17:49:29.239Z,27.33
2022-12-09T17:52:31.375Z,24.52
2022-12-09T17:55:37.926Z,25.13
2022-12-09T17:58:40.052Z,28.02
2022-12-09T18:01:43.883Z,26.98
2022-12-09T18:04:45.559Z,27.33
2022-12-09T18:07:47.188Z,27.50
2022-12-09T18:10:48.801Z,26.60
2022-12-09T18:13:50.550Z,26.48
2022-12-09T18:16:52.144Z,25.23
2022-12-09T18:19:54.547Z,25.25
2022-12-09T18:22:56.068Z,24.67
2022-12-09T18:25:58.758Z,23.95
2022-12-09T18:29:00.338Z,23.98
2022-12-09T18:32:02.139Z,25.88
2022-12-09T18:35:04.144Z,24.25
2022-12-09T18:38:12.404Z,25.90
2022-12-09T18:41:22.431Z,27.00
2022-12-09T18:44:23.966Z,26.00
2022-12-09T18:47:25.501Z,28.48
2022-12-09T18:50:27.011Z,27.95
2022-12-09T18:53:28.643Z,26.73
2022-12-09T18:56:31.297Z,30.40
2022-12-09T18:59:33.072Z,27.98
2022-12-09T19:02:34.606Z,29.38
2022-12-09T19:05:40.946Z,28.30
2022-12-09T19:08:42.614Z,27.23
2022-12-09T19:11:46.091Z,26.38
2022-12-09T19:14:47.634Z,28.20
2022-12-09T19:17:49.202Z,28.73
2022-12-09T19:20:51.201Z,27.70
2022-12-09T19:23:53.663Z,30.23
2022-12-09T19:26:57.635Z,32.63
2022-12-09T19:29:59.174Z,30.60
2022-12-09T19:33:00.699Z,30.02
2022-12-09T19:36:05.495Z,31.02
2022-12-09T19:39:08.844Z,33.97
2022-12-09T19:42:11.610Z,30.48
2022-12-09T19:45:14.391Z,33.85
2022-12-09T19:48:16.695Z,32.17
2022-12-09T19:51:19.482Z,32.45
2022-12-09T19:54:26.741Z,27.40
2022-12-09T19:57:29.927Z,37.15
2022-12-09T20:00:32.924Z,32.75
2022-12-09T20:03:42.499Z,29.08
2022-12-09T20:06:45.113Z,25.38
2022-12-09T20:09:47.547Z,25.98
2022-12-09T20:12:49.058Z,25.83
2022-12-09T20:15:50.616Z,26.80
2022-12-09T20:18:55.179Z,25.98
2022-12-09T20:21:56.877Z,25.52
2022-12-09T20:24:58.398Z,24.50
2022-12-09T20:28:00.522Z,24.73
2022-12-09T20:31:08.238Z,27.98
2022-12-09T20:34:15.952Z,26.75
2022-12-09T20:37:17.589Z,26.40
2022-12-09T20:40:19.320Z,27.58
2022-12-09T20:43:21.102Z,27.50
2022-12-09T20:46:32.423Z,28.17
2022-12-09T20:49:34.320Z,31.40
2022-12-09T20:52:36.063Z,26.92
2022-12-09T20:55:37.611Z,26.17
2022-12-09T20:58:40.495Z,27.65
2022-12-09T21:01:43.694Z,27.58
2022-12-09T21:04:46.179Z,29.50
2022-12-09T21:07:47.767Z,27.52
2022-12-09T21:10:49.537Z,26.95
2022-12-09T21:13:53.527Z,26.73
2022-12-09T21:16:55.436Z,26.80
2022-12-09T21:19:57.029Z,27.02
2022-12-09T21:23:25.070Z,25.75
2022-12-09T21:26:22.397Z,27.00
2022-12-09T21:29:29.855Z,26.63
2022-12-09T21:32:35.549Z,27.42
2022-12-09T21:35:37.736Z,28.13
2022-12-09T21:38:39.764Z,29.63
2022-12-09T21:41:42.908Z,29.83
2022-12-09T21:44:44.788Z,26.70
2022-12-09T21:47:46.419Z,26.83
2022-12-09T21:50:54.640Z,26.60
2022-12-09T21:53:56.300Z,28.70
2022-12-09T21:56:58.028Z,26.38
2022-12-09T21:59:59.683Z,27.50
2022-12-09T22:03:01.305Z,27.55
2022-12-09T22:06:03.582Z,27.83
2022-12-09T22:09:07.367Z,27.50
2022-12-09T22:12:09.085Z,29.52
2022-12-09T22:15:10.908Z,33.45
2022-12-09T22:18:12.513Z,30.08
2022-12-09T22:21:26.003Z,26.60
2022-12-09T22:27:29.948Z,25.67
2022-12-09T22:30:31.628Z,24.90
2022-12-09T22:33:33.286Z,25.05
2022-12-09T22:36:36.873Z,24.65
2022-12-09T22:39:38.478Z,24.63
2022-12-09T22:42:39.971Z,25.23
2022-12-09T22:45:41.529Z,25.40
2022-12-09T22:48:44.117Z,26.75
2022-12-09T22:51:46.468Z,25.67
2022-12-09T22:54:47.991Z,24.83
2022-12-09T22:57:50.072Z,25.95
2022-12-09T23:00:51.685Z,29.00
2022-12-09T23:03:57.522Z,27.77
2022-12-09T23:06:59.115Z,26.63
2022-12-09T23:10:01.091Z,26.73
2022-12-09T23:13:02.656Z,27.95
2022-12-09T23:16:05.511Z,30.15
2022-12-09T23:19:07.133Z,27.95
2022-12-09T23:22:08.682Z,29.83
2022-12-09T23:25:10.707Z,28.92
2022-12-09T23:28:12.251Z,27.25
2022-12-09T23:31:15.960Z,29.67
2022-12-09T23:34:17.944Z,28.52
2022-12-09T23:37:19.450Z,32.80
2022-12-09T23:40:21.148Z,31.88
2022-12-09T23:43:22.671Z,31.00
2022-12-09T23:46:27.137Z,32.90
2022-12-09T23:49:28.627Z,31.52
2022-12-09T23:52:30.237Z,33.60
2022-12-09T23:55:31.837Z,31.20
2022-12-09T23:58:34.027Z,29.88
